createdAt,value
2023-08-19T00:00:27.256Z,147.33
2023-08-19T00:01:00.416Z,146.33
2023-08-19T00:01:35.333Z,144.67
2023-08-19T00:02:08.051Z,142.67
2023-08-19T00:02:40.667Z,136.67
2023-08-19T00:03:13.239Z,123.67
2023-08-19T00:03:45.897Z,116.33
2023-08-19T00:04:18.440Z,116.67
2023-08-19T00:04:50.959Z,120.67
2023-08-19T00:05:23.455Z,123.33
2023-08-19T00:05:55.937Z,124.00
2023-08-19T00:06:37.764Z,123.00
2023-08-19T00:07:10.265Z,124.33
2023-08-19T00:07:42.759Z,125.00
2023-08-19T00:08:15.242Z,125.00
2023-08-19T00:08:47.744Z,124.33
2023-08-19T00:09:20.231Z,122.33
2023-08-19T00:09:52.704Z,121.67
2023-08-19T00:10:25.259Z,121.00
2023-08-19T00:10:57.773Z,121.00
2023-08-19T00:11:30.676Z,121.33
2023-08-19T00:12:03.971Z,122.00
2023-08-19T00:12:36.508Z,122.33
2023-08-19T00:13:09.098Z,123.00
2023-08-19T00:13:41.599Z,123.33
2023-08-19T00:14:14.181Z,124.33
2023-08-19T00:14:48.911Z,126.00
2023-08-19T00:15:21.432Z,127.33
2023-08-19T00:15:54.134Z,128.67
2023-08-19T00:16:26.655Z,129.33
2023-08-19T00:16:59.338Z,130.00
2023-08-19T00:17:32.119Z,130.00
2023-08-19T00:18:05.442Z,130.00
2023-08-19T00:18:37.986Z,130.00
2023-08-19T00:19:10.610Z,130.00
2023-08-19T00:19:43.178Z,129.00
2023-08-19T00:20:15.686Z,128.00
2023-08-19T00:20:48.800Z,128.00
2023-08-19T00:21:21.390Z,127.33
2023-08-19T00:21:53.899Z,127.67
2023-08-19T00:22:26.378Z,129.00
2023-08-19T00:22:59.339Z,132.00
2023-08-19T00:23:32.201Z,134.67
2023-08-19T00:24:05.095Z,136.00
2023-08-19T00:24:37.608Z,136.00
2023-08-19T00:25:10.409Z,137.00
2023-08-19T00:25:42.990Z,136.33
2023-08-19T00:26:15.749Z,136.00
2023-08-19T00:26:48.262Z,135.67
2023-08-19T00:27:20.778Z,135.00
2023-08-19T00:27:54.091Z,135.00
2023-08-19T00:28:26.809Z,135.00
2023-08-19T00:28:59.424Z,133.67
2023-08-19T00:29:31.963Z,132.00
2023-08-19T00:30:04.646Z,129.00
2023-08-19T00:30:37.178Z,126.67
2023-08-19T00:31:10.295Z,126.00
2023-08-19T00:31:43.302Z,125.33
2023-08-19T00:32:16.549Z,123.67
2023-08-19T00:32:49.181Z,121.33
2023-08-19T00:33:24.393Z,121.00
2023-08-19T00:33:56.877Z,122.00
2023-08-19T00:34:29.412Z,122.00
2023-08-19T00:35:01.950Z,123.33
2023-08-19T00:35:34.827Z,125.33
2023-08-19T00:36:07.342Z,127.67
2023-08-19T00:36:39.880Z,131.00
2023-08-19T00:37:12.403Z,134.00
2023-08-19T00:37:44.893Z,136.00
2023-08-19T00:38:17.380Z,137.00
2023-08-19T00:38:52.933Z,138.00
2023-08-19T00:39:25.493Z,141.33
2023-08-19T00:39:58.002Z,149.33
2023-08-19T00:40:30.497Z,154.33
2023-08-19T00:41:04.410Z,153.33
2023-08-19T00:41:37.013Z,154.67
2023-08-19T00:42:10.001Z,156.00
2023-08-19T00:42:42.709Z,158.00
2023-08-19T00:43:15.188Z,160.33
2023-08-19T00:43:47.682Z,162.33
2023-08-19T00:44:20.296Z,165.00
2023-08-19T00:44:53.984Z,167.67
2023-08-19T00:45:26.604Z,167.67
2023-08-19T00:45:59.472Z,167.00
2023-08-19T00:46:33.301Z,166.67
2023-08-19T00:47:06.109Z,164.67
2023-08-19T00:47:40.394Z,164.00
2023-08-19T00:48:17.719Z,163.00
2023-08-19T00:48:50.289Z,163.33
2023-08-19T00:49:22.873Z,163.67
2023-08-19T00:49:56.159Z,162.67
2023-08-19T00:50:28.893Z,162.00
2023-08-19T00:51:03.790Z,161.33
2023-08-19T00:51:36.390Z,161.00
2023-08-19T00:52:09.525Z,160.67
2023-08-19T00:52:43.228Z,160.00
2023-08-19T00:53:16.485Z,160.00
2023-08-19T00:53:49.471Z,160.00
2023-08-19T00:54:22.043Z,159.67
2023-08-19T00:54:54.573Z,159.67
2023-08-19T00:55:27.201Z,159.67
2023-08-19T00:56:00.031Z,160.00
2023-08-19T00:56:32.734Z,160.00
2023-08-19T00:57:05.486Z,160.00
2023-08-19T00:57:39.013Z,160.00
2023-08-19T00:58:12.701Z,160.00
2023-08-19T00:58:45.845Z,159.67
2023-08-19T00:59:18.598Z,159.00
2023-08-19T00:59:51.167Z,158.67
2023-08-19T01:00:23.833Z,157.67
2023-08-19T01:00:56.444Z,156.67
2023-08-19T01:01:29.043Z,155.33
2023-08-19T01:02:01.621Z,154.33
2023-08-19T01:02:34.252Z,154.00
2023-08-19T01:03:07.541Z,154.00
2023-08-19T01:03:40.421Z,154.00
2023-08-19T01:04:13.184Z,154.00
2023-08-19T01:04:46.014Z,155.00
2023-08-19T01:05:22.333Z,155.00
2023-08-19T01:06:09.870Z,156.00
2023-08-19T01:06:57.345Z,157.33
2023-08-19T01:07:38.738Z,160.00
2023-08-19T01:08:18.538Z,161.00
2023-08-19T01:09:05.277Z,161.67
2023-08-19T01:09:43.860Z,162.67
2023-08-19T01:10:36.362Z,163.67
2023-08-19T01:11:37.181Z,164.00
2023-08-19T01:12:47.705Z,164.00
2023-08-19T01:13:27.252Z,164.00
2023-08-19T01:14:16.420Z,163.67
2023-08-19T01:15:02.325Z,161.67
2023-08-19T01:15:42.765Z,158.67
2023-08-19T01:16:28.125Z,156.67
2023-08-19T01:17:05.046Z,153.67
2023-08-19T01:17:38.912Z,152.33
2023-08-19T01:18:12.678Z,152.00
2023-08-19T01:18:45.647Z,151.00
2023-08-19T01:19:29.204Z,147.33
2023-08-19T01:20:01.782Z,143.33
2023-08-19T01:20:36.051Z,141.33
2023-08-19T01:21:10.014Z,138.00
2023-08-19T01:21:42.564Z,133.33
2023-08-19T01:22:22.502Z,129.67
2023-08-19T01:23:01.952Z,127.00
2023-08-19T01:23:39.275Z,127.33
2023-08-19T01:24:12.851Z,127.00
2023-08-19T01:24:47.667Z,126.33
2023-08-19T01:25:21.331Z,126.00
2023-08-19T01:25:54.536Z,125.00
2023-08-19T01:26:27.097Z,124.00
2023-08-19T01:26:59.629Z,123.67
2023-08-19T01:27:32.378Z,123.00
2023-08-19T01:28:05.289Z,122.67
2023-08-19T01:28:37.786Z,123.33
2023-08-19T01:29:10.852Z,124.00
2023-08-19T01:29:43.365Z,123.00
2023-08-19T01:30:16.091Z,122.67
2023-08-19T01:30:48.628Z,122.67
2023-08-19T01:31:21.229Z,121.33
2023-08-19T01:31:54.190Z,122.00
2023-08-19T01:32:27.004Z,122.67
2023-08-19T01:32:59.578Z,123.00
2023-08-19T01:33:33.114Z,123.33
2023-08-19T01:34:05.766Z,123.00
2023-08-19T01:34:38.503Z,123.00
2023-08-19T01:35:15.498Z,123.00
2023-08-19T01:36:17.062Z,123.00
2023-08-19T01:36:56.797Z,123.00
2023-08-19T01:37:38.727Z,124.00
2023-08-19T01:38:30.543Z,127.33
2023-08-19T01:39:07.592Z,137.00
2023-08-19T01:39:44.012Z,142.00
2023-08-19T01:40:16.982Z,144.67
2023-08-19T01:40:51.605Z,145.00
2023-08-19T01:41:27.881Z,145.00
2023-08-19T01:42:00.802Z,145.00
2023-08-19T01:42:34.081Z,145.00
2023-08-19T01:43:11.669Z,144.33
2023-08-19T01:43:45.588Z,143.00
2023-08-19T01:44:19.032Z,141.67
2023-08-19T01:44:52.276Z,139.67
2023-08-19T01:45:25.150Z,138.00
2023-08-19T01:45:57.805Z,136.00
2023-08-19T01:46:30.642Z,134.33
2023-08-19T01:47:17.433Z,133.33
2023-08-19T01:47:57.422Z,132.33
2023-08-19T01:48:29.999Z,131.33
2023-08-19T01:49:02.647Z,130.33
2023-08-19T01:49:35.140Z,129.00
2023-08-19T01:50:09.147Z,129.00
2023-08-19T01:50:41.636Z,128.00
2023-08-19T01:51:14.166Z,128.00
2023-08-19T01:51:46.685Z,128.00
2023-08-19T01:52:20.236Z,128.33
2023-08-19T01:52:52.883Z,129.00
2023-08-19T01:53:25.459Z,129.00
2023-08-19T01:53:57.997Z,129.00
2023-08-19T01:54:30.500Z,129.33
2023-08-19T01:55:02.989Z,129.00
2023-08-19T01:55:35.496Z,129.00
2023-08-19T01:56:07.997Z,129.00
2023-08-19T01:56:40.667Z,129.00
2023-08-19T01:57:13.230Z,129.00
2023-08-19T01:57:45.780Z,129.67
2023-08-19T01:58:18.328Z,130.00
2023-08-19T01:58:50.840Z,130.00
2023-08-19T01:59:23.391Z,130.00
2023-08-19T01:59:56.297Z,130.00
2023-08-19T02:00:29.442Z,130.67
2023-08-19T02:01:01.979Z,131.00
2023-08-19T02:01:34.576Z,131.00
2023-08-19T02:02:07.139Z,131.00
2023-08-19T02:02:39.688Z,131.00
2023-08-19T02:03:12.247Z,131.00
2023-08-19T02:03:44.836Z,130.00
2023-08-19T02:04:18.616Z,129.67
2023-08-19T02:04:51.678Z,129.00
2023-08-19T02:05:24.260Z,129.00
2023-08-19T02:05:56.774Z,129.00
2023-08-19T02:06:30.956Z,128.33
2023-08-19T02:07:03.507Z,128.00
2023-08-19T02:07:36.020Z,128.00
2023-08-19T02:08:08.504Z,128.00
2023-08-19T02:08:40.993Z,128.00
2023-08-19T02:09:13.560Z,128.00
2023-08-19T02:09:46.873Z,128.00
2023-08-19T02:10:19.371Z,127.67
2023-08-19T02:10:51.912Z,126.00
2023-08-19T02:11:24.458Z,125.00
2023-08-19T02:11:57.758Z,125.00
2023-08-19T02:12:30.284Z,125.00
2023-08-19T02:13:03.696Z,126.00
2023-08-19T02:13:36.249Z,128.00
2023-08-19T02:14:09.673Z,130.00
2023-08-19T02:14:42.175Z,131.67
2023-08-19T02:15:15.687Z,133.00
2023-08-19T02:15:48.275Z,133.67
2023-08-19T02:16:20.827Z,134.00
2023-08-19T02:16:53.349Z,135.67
2023-08-19T02:17:25.885Z,137.00
2023-08-19T02:17:59.563Z,137.67
2023-08-19T02:18:32.358Z,138.00
2023-08-19T02:19:05.382Z,138.67
2023-08-19T02:19:37.893Z,139.67
2023-08-19T02:20:10.929Z,139.67
2023-08-19T02:20:47.623Z,139.00
2023-08-19T02:21:20.169Z,139.00
2023-08-19T02:21:53.096Z,138.33
2023-08-19T02:22:25.624Z,136.33
2023-08-19T02:23:00.373Z,135.00
2023-08-19T02:23:32.869Z,133.33
2023-08-19T02:24:05.757Z,132.33
2023-08-19T02:24:38.276Z,132.00
2023-08-19T02:25:10.903Z,132.00
2023-08-19T02:25:43.398Z,132.00
2023-08-19T02:26:15.877Z,131.33
2023-08-19T02:26:48.415Z,131.00
2023-08-19T02:27:20.928Z,130.33
2023-08-19T02:27:53.466Z,128.00
2023-08-19T02:28:25.997Z,126.67
2023-08-19T02:28:58.495Z,126.00
2023-08-19T02:29:31.015Z,127.00
2023-08-19T02:30:03.834Z,128.00
2023-08-19T02:30:36.352Z,133.00
2023-08-19T02:31:08.929Z,141.33
2023-08-19T02:31:42.042Z,146.33
2023-08-19T02:32:14.545Z,147.67
2023-08-19T02:32:47.083Z,147.67
2023-08-19T02:33:19.593Z,147.33
2023-08-19T02:33:52.151Z,147.00
2023-08-19T02:34:24.693Z,146.33
2023-08-19T02:34:57.189Z,145.33
2023-08-19T02:35:29.709Z,144.33
2023-08-19T02:36:02.350Z,142.00
2023-08-19T02:36:34.885Z,139.67
2023-08-19T02:37:07.436Z,138.00
2023-08-19T02:37:40.110Z,137.33
2023-08-19T02:38:12.656Z,137.00
2023-08-19T02:38:45.186Z,137.00
2023-08-19T02:39:17.747Z,137.00
2023-08-19T02:39:50.253Z,136.00
2023-08-19T02:40:22.804Z,136.00
2023-08-19T02:40:55.361Z,135.00
2023-08-19T02:41:27.843Z,135.00
2023-08-19T02:42:00.431Z,135.00
2023-08-19T02:42:33.002Z,135.00
2023-08-19T02:43:05.530Z,134.00
2023-08-19T02:43:38.055Z,133.33
2023-08-19T02:44:10.571Z,133.67
2023-08-19T02:44:44.428Z,134.00
2023-08-19T02:45:16.934Z,134.00
2023-08-19T02:45:49.877Z,134.00
2023-08-19T02:46:22.444Z,134.00
2023-08-19T02:46:55.038Z,134.00
2023-08-19T02:47:27.628Z,134.67
2023-08-19T02:48:00.184Z,135.00
2023-08-19T02:48:32.798Z,135.67
2023-08-19T02:49:05.420Z,136.00
2023-08-19T02:49:37.967Z,136.00
2023-08-19T02:50:10.775Z,136.00
2023-08-19T02:50:43.615Z,136.00
2023-08-19T02:51:16.151Z,136.00
2023-08-19T02:51:48.649Z,136.00
2023-08-19T02:52:21.166Z,135.67
2023-08-19T02:52:53.667Z,134.67
2023-08-19T02:53:26.198Z,133.67
2023-08-19T02:53:58.742Z,133.00
2023-08-19T02:54:31.225Z,133.00
2023-08-19T02:55:03.868Z,133.00
2023-08-19T02:55:42.096Z,133.00
2023-08-19T02:56:14.607Z,133.00
2023-08-19T02:56:47.122Z,133.00
2023-08-19T02:57:19.692Z,134.00
2023-08-19T02:57:52.222Z,134.33
2023-08-19T02:58:26.169Z,136.00
2023-08-19T02:58:58.695Z,138.33
2023-08-19T02:59:31.187Z,139.67
2023-08-19T03:00:03.970Z,140.00
2023-08-19T03:00:39.590Z,141.00
2023-08-19T03:01:14.566Z,142.67
2023-08-19T03:01:47.163Z,144.33
2023-08-19T03:02:19.896Z,145.67
2023-08-19T03:02:53.836Z,146.00
2023-08-19T03:03:28.561Z,147.00
2023-08-19T03:04:01.670Z,148.33
2023-08-19T03:04:34.216Z,150.33
2023-08-19T03:05:06.967Z,154.00
2023-08-19T03:05:40.288Z,154.33
2023-08-19T03:06:12.880Z,155.00
2023-08-19T03:06:45.480Z,155.00
2023-08-19T03:07:18.018Z,155.00
2023-08-19T03:07:50.552Z,155.00
2023-08-19T03:08:23.090Z,155.00
2023-08-19T03:08:55.582Z,155.67
2023-08-19T03:09:28.079Z,157.00
2023-08-19T03:10:00.575Z,157.00
2023-08-19T03:10:34.640Z,157.00
2023-08-19T03:11:07.182Z,157.00
2023-08-19T03:11:42.714Z,157.00
2023-08-19T03:12:15.442Z,157.00
2023-08-19T03:12:47.985Z,157.00
2023-08-19T03:13:20.539Z,157.00
2023-08-19T03:13:53.059Z,156.67
2023-08-19T03:14:25.581Z,156.33
2023-08-19T03:14:58.107Z,157.00
2023-08-19T03:15:31.957Z,157.67
2023-08-19T03:16:05.763Z,158.33
2023-08-19T03:16:38.331Z,159.00
2023-08-19T03:17:10.837Z,158.33
2023-08-19T03:17:43.592Z,158.00
2023-08-19T03:18:16.132Z,158.00
2023-08-19T03:18:48.660Z,158.00
2023-08-19T03:19:21.222Z,158.00
2023-08-19T03:19:53.862Z,158.00
2023-08-19T03:20:26.566Z,158.00
2023-08-19T03:21:00.192Z,158.00
2023-08-19T03:21:32.742Z,158.00
2023-08-19T03:22:05.294Z,158.00
2023-08-19T03:22:39.524Z,157.67
2023-08-19T03:23:12.084Z,157.00
2023-08-19T03:23:44.608Z,156.00
2023-08-19T03:24:17.177Z,155.67
2023-08-19T03:24:49.676Z,153.00
2023-08-19T03:25:22.211Z,150.00
2023-08-19T03:25:55.920Z,151.33
2023-08-19T03:26:28.448Z,156.00
2023-08-19T03:27:00.984Z,162.00
2023-08-19T03:27:33.727Z,169.33
2023-08-19T03:28:06.614Z,174.67
2023-08-19T03:28:39.131Z,178.67
2023-08-19T03:29:11.652Z,178.67
2023-08-19T03:29:44.152Z,175.33
2023-08-19T03:30:16.670Z,173.33
2023-08-19T03:30:49.342Z,173.00
2023-08-19T03:31:21.842Z,171.67
2023-08-19T03:31:54.342Z,170.67
2023-08-19T03:32:26.910Z,166.00
2023-08-19T03:32:59.486Z,162.00
2023-08-19T03:33:32.151Z,159.67
2023-08-19T03:34:04.716Z,153.33
2023-08-19T03:34:37.289Z,139.33
2023-08-19T03:35:10.070Z,127.00
2023-08-19T03:35:42.665Z,126.33
2023-08-19T03:36:15.151Z,137.33
2023-08-19T03:36:48.460Z,140.33
2023-08-19T03:37:20.991Z,141.67
2023-08-19T03:37:53.524Z,142.00
2023-08-19T03:38:26.024Z,142.33
2023-08-19T03:38:58.714Z,143.00
2023-08-19T03:39:31.232Z,143.67
2023-08-19T03:40:04.463Z,148.00
2023-08-19T03:40:37.583Z,166.00
2023-08-19T03:41:10.119Z,177.00
2023-08-19T03:41:42.651Z,181.67
2023-08-19T03:42:15.149Z,185.33
2023-08-19T03:42:47.674Z,186.67
2023-08-19T03:43:20.206Z,185.67
2023-08-19T03:43:52.808Z,184.67
2023-08-19T03:44:25.345Z,183.33
2023-08-19T03:44:57.914Z,181.00
2023-08-19T03:45:31.496Z,180.00
2023-08-19T03:46:04.125Z,179.00
2023-08-19T03:46:36.709Z,179.00
2023-08-19T03:47:13.540Z,180.67
2023-08-19T03:47:46.252Z,180.67
2023-08-19T03:48:18.821Z,180.33
2023-08-19T03:48:51.326Z,179.00
2023-08-19T03:49:23.816Z,177.67
2023-08-19T03:49:56.351Z,176.00
2023-08-19T03:50:28.862Z,175.67
2023-08-19T03:51:01.373Z,175.00
2023-08-19T03:51:33.911Z,176.33
2023-08-19T03:52:07.507Z,179.00
2023-08-19T03:52:40.065Z,183.67
2023-08-19T03:53:12.549Z,187.67
2023-08-19T03:53:45.082Z,191.00
2023-08-19T03:54:17.585Z,192.33
2023-08-19T03:54:50.134Z,194.33
2023-08-19T03:55:22.671Z,196.00
2023-08-19T03:55:55.237Z,195.67
2023-08-19T03:56:27.728Z,193.00
2023-08-19T03:57:00.858Z,191.33
2023-08-19T03:57:33.664Z,190.67
2023-08-19T03:58:06.396Z,189.67
2023-08-19T03:58:38.893Z,189.00
2023-08-19T03:59:11.429Z,186.67
2023-08-19T03:59:44.016Z,179.00
2023-08-19T04:00:16.575Z,167.33
2023-08-19T04:00:49.076Z,155.00
2023-08-19T04:01:21.638Z,146.67
2023-08-19T04:01:54.153Z,143.00
2023-08-19T04:02:26.810Z,140.00
2023-08-19T04:02:59.432Z,136.33
2023-08-19T04:03:31.970Z,133.33
2023-08-19T04:04:04.754Z,135.00
2023-08-19T04:04:37.512Z,135.67
2023-08-19T04:05:11.933Z,135.33
2023-08-19T04:05:44.467Z,135.67
2023-08-19T04:06:16.996Z,133.67
2023-08-19T04:06:49.607Z,133.00
2023-08-19T04:07:22.112Z,135.67
2023-08-19T04:07:54.609Z,136.67
2023-08-19T04:08:27.544Z,137.33
2023-08-19T04:09:00.259Z,136.33
2023-08-19T04:09:32.791Z,135.00
2023-08-19T04:10:05.692Z,133.00
2023-08-19T04:10:38.330Z,131.00
2023-08-19T04:11:10.870Z,130.33
2023-08-19T04:11:43.421Z,132.67
2023-08-19T04:12:16.925Z,135.33
2023-08-19T04:12:49.420Z,141.33
2023-08-19T04:13:22.020Z,153.67
2023-08-19T04:13:54.566Z,165.00
2023-08-19T04:14:27.078Z,161.33
2023-08-19T04:14:59.608Z,158.33
2023-08-19T04:15:33.172Z,152.33
2023-08-19T04:16:07.683Z,148.33
2023-08-19T04:16:40.447Z,148.00
2023-08-19T04:17:13.073Z,155.33
2023-08-19T04:17:45.709Z,173.67
2023-08-19T04:18:18.270Z,186.00
2023-08-19T04:18:51.711Z,193.33
2023-08-19T04:19:24.237Z,194.00
2023-08-19T04:19:56.772Z,188.00
2023-08-19T04:20:29.330Z,177.33
2023-08-19T04:21:05.950Z,174.33
2023-08-19T04:21:38.487Z,173.67
2023-08-19T04:22:15.675Z,173.00
2023-08-19T04:22:50.787Z,173.00
2023-08-19T04:23:23.433Z,173.00
2023-08-19T04:23:55.958Z,172.67
2023-08-19T04:24:28.921Z,173.00
2023-08-19T04:25:01.448Z,173.00
2023-08-19T04:25:34.014Z,172.00
2023-08-19T04:26:06.564Z,171.33
2023-08-19T04:26:39.602Z,168.33
2023-08-19T04:27:12.094Z,160.00
2023-08-19T04:27:44.630Z,154.67
2023-08-19T04:28:17.152Z,150.67
2023-08-19T04:28:49.777Z,146.67
2023-08-19T04:29:22.269Z,144.33
2023-08-19T04:29:54.799Z,143.00
2023-08-19T04:30:27.343Z,141.33
2023-08-19T04:31:08.214Z,138.67
2023-08-19T04:31:40.804Z,138.00
2023-08-19T04:32:14.369Z,139.67
2023-08-19T04:32:47.753Z,140.33
2023-08-19T04:33:20.399Z,141.67
2023-08-19T04:33:52.940Z,143.00
2023-08-19T04:34:25.595Z,143.67
2023-08-19T04:34:58.112Z,145.00
2023-08-19T04:35:30.608Z,146.33
2023-08-19T04:36:03.756Z,147.00
2023-08-19T04:36:36.278Z,147.00
2023-08-19T04:37:10.225Z,147.00
2023-08-19T04:37:42.885Z,147.33
2023-08-19T04:38:16.541Z,147.00
2023-08-19T04:38:49.101Z,146.00
2023-08-19T04:39:22.070Z,143.00
2023-08-19T04:39:54.912Z,135.67
2023-08-19T04:40:27.406Z,234.00
2023-08-19T04:41:01.346Z,297.33
2023-08-19T04:41:33.846Z,248.67
2023-08-19T04:42:06.515Z,211.00
2023-08-19T04:42:39.851Z,189.67
2023-08-19T04:43:12.660Z,175.33
2023-08-19T04:43:45.247Z,157.33
2023-08-19T04:44:18.256Z,155.33
2023-08-19T04:44:50.764Z,157.67
2023-08-19T04:45:23.294Z,159.33
2023-08-19T04:45:55.917Z,162.33
2023-08-19T04:46:28.472Z,167.00
2023-08-19T04:47:01.055Z,168.00
2023-08-19T04:47:34.996Z,164.33
2023-08-19T04:48:08.299Z,155.33
2023-08-19T04:48:40.844Z,142.00
2023-08-19T04:49:13.394Z,133.33
2023-08-19T04:49:45.904Z,129.00
2023-08-19T04:50:18.551Z,123.67
2023-08-19T04:50:51.050Z,126.67
2023-08-19T04:51:23.642Z,131.67
2023-08-19T04:51:56.177Z,131.33
2023-08-19T04:52:28.704Z,129.33
2023-08-19T04:53:01.236Z,130.00
2023-08-19T04:53:33.790Z,130.00
2023-08-19T04:54:06.649Z,128.33
2023-08-19T04:54:39.156Z,129.67
2023-08-19T04:55:11.695Z,130.00
2023-08-19T04:55:44.195Z,130.33
2023-08-19T04:56:18.371Z,130.33
2023-08-19T04:56:51.003Z,129.67
2023-08-19T04:57:23.490Z,130.00
2023-08-19T04:57:56.027Z,132.33
2023-08-19T04:58:28.532Z,133.33
2023-08-19T04:59:01.672Z,135.00
2023-08-19T04:59:34.220Z,136.00
2023-08-19T05:00:09.714Z,136.33
2023-08-19T05:00:42.244Z,137.00
2023-08-19T05:01:15.057Z,137.00
2023-08-19T05:01:47.652Z,137.00
2023-08-19T05:02:20.214Z,137.00
2023-08-19T05:02:52.794Z,137.67
2023-08-19T05:03:25.334Z,138.00
2023-08-19T05:03:57.885Z,138.00
2023-08-19T05:04:30.409Z,138.00
2023-08-19T05:05:04.554Z,138.00
2023-08-19T05:05:37.060Z,139.00
2023-08-19T05:06:09.599Z,140.00
2023-08-19T05:06:42.127Z,142.67
2023-08-19T05:07:14.671Z,144.67
2023-08-19T05:07:47.285Z,146.00
2023-08-19T05:08:19.787Z,147.00
2023-08-19T05:08:52.286Z,148.33
2023-08-19T05:09:24.813Z,150.33
2023-08-19T05:09:57.433Z,150.00
2023-08-19T05:10:29.919Z,151.00
2023-08-19T05:11:02.478Z,152.00
2023-08-19T05:11:34.980Z,151.00
2023-08-19T05:12:07.939Z,150.67
2023-08-19T05:12:40.827Z,150.00
2023-08-19T05:13:13.401Z,148.67
2023-08-19T05:13:45.939Z,147.67
2023-08-19T05:14:18.828Z,147.00
2023-08-19T05:14:51.357Z,147.00
2023-08-19T05:15:23.883Z,147.00
2023-08-19T05:15:56.381Z,146.33
2023-08-19T05:16:29.011Z,146.00
2023-08-19T05:17:01.640Z,147.00
2023-08-19T05:17:34.484Z,147.00
2023-08-19T05:18:07.278Z,146.33
2023-08-19T05:18:39.817Z,146.00
2023-08-19T05:19:20.656Z,146.00
2023-08-19T05:19:55.701Z,146.00
2023-08-19T05:20:28.504Z,148.33
2023-08-19T05:21:01.019Z,157.33
2023-08-19T05:21:33.561Z,163.33
2023-08-19T05:22:06.106Z,171.00
2023-08-19T05:22:38.645Z,179.00
2023-08-19T05:23:11.170Z,175.00
2023-08-19T05:23:43.713Z,168.33
2023-08-19T05:24:16.872Z,166.67
2023-08-19T05:24:50.510Z,165.67
2023-08-19T05:25:23.037Z,165.00
2023-08-19T05:25:55.572Z,165.67
2023-08-19T05:26:28.123Z,164.67
2023-08-19T05:27:01.461Z,164.00
2023-08-19T05:27:34.216Z,163.33
2023-08-19T05:28:07.099Z,162.67
2023-08-19T05:28:39.681Z,162.00
2023-08-19T05:29:13.383Z,161.67
2023-08-19T05:29:45.874Z,161.00
2023-08-19T05:30:18.361Z,160.00
2023-08-19T05:30:50.889Z,159.00
2023-08-19T05:31:23.450Z,160.00
2023-08-19T05:31:56.834Z,161.33
2023-08-19T05:32:29.333Z,172.67
2023-08-19T05:33:01.921Z,173.33
2023-08-19T05:33:34.466Z,168.33
2023-08-19T05:34:10.069Z,154.33
2023-08-19T05:34:42.581Z,144.33
2023-08-19T05:35:15.294Z,142.67
2023-08-19T05:35:47.877Z,143.00
2023-08-19T05:36:20.421Z,143.67
2023-08-19T05:36:52.937Z,145.00
2023-08-19T05:37:25.487Z,144.00
2023-08-19T05:37:57.994Z,141.67
2023-08-19T05:38:30.522Z,135.67
2023-08-19T05:39:03.421Z,120.67
2023-08-19T05:39:35.920Z,112.00
2023-08-19T05:40:08.945Z,106.33
2023-08-19T05:40:41.487Z,104.33
2023-08-19T05:41:14.020Z,101.67
2023-08-19T05:41:46.552Z,102.67
2023-08-19T05:42:19.401Z,102.67
2023-08-19T05:42:51.951Z,103.33
2023-08-19T05:43:24.505Z,105.00
2023-08-19T05:43:57.120Z,98.33
2023-08-19T05:44:29.610Z,81.33
2023-08-19T05:45:02.138Z,73.67
2023-08-19T05:45:35.056Z,68.00
2023-08-19T05:46:08.698Z,67.00
2023-08-19T05:46:41.368Z,68.33
2023-08-19T05:47:13.920Z,65.00
2023-08-19T05:47:46.419Z,65.67
2023-08-19T05:48:18.910Z,67.33
2023-08-19T05:48:51.418Z,67.33
2023-08-19T05:49:24.062Z,68.67
2023-08-19T05:49:56.573Z,65.00
2023-08-19T05:50:29.197Z,62.00
2023-08-19T05:51:02.302Z,62.00
2023-08-19T05:51:35.404Z,61.00
2023-08-19T05:52:07.984Z,61.00
2023-08-19T05:52:40.572Z,62.33
2023-08-19T05:53:13.122Z,63.33
2023-08-19T05:53:45.666Z,63.67
2023-08-19T05:54:18.154Z,64.33
2023-08-19T05:54:51.363Z,66.00
2023-08-19T05:55:23.862Z,65.33
2023-08-19T05:55:56.386Z,64.00
2023-08-19T05:56:28.910Z,63.67
2023-08-19T05:57:01.436Z,65.00
2023-08-19T05:57:34.364Z,66.00
2023-08-19T05:58:07.333Z,67.33
2023-08-19T05:58:39.854Z,68.00
2023-08-19T05:59:12.370Z,69.00
2023-08-19T05:59:45.031Z,69.00
2023-08-19T06:00:17.754Z,70.00
2023-08-19T06:00:57.863Z,70.33
2023-08-19T06:01:30.499Z,71.00
2023-08-19T06:02:03.215Z,72.00
2023-08-19T06:02:35.762Z,72.67
2023-08-19T06:03:08.330Z,73.00
2023-08-19T06:03:40.960Z,73.00
2023-08-19T06:04:13.511Z,74.33
2023-08-19T06:04:46.021Z,76.67
2023-08-19T06:05:18.554Z,77.00
2023-08-19T06:05:51.141Z,77.00
2023-08-19T06:06:23.670Z,77.00
2023-08-19T06:06:56.162Z,76.00
2023-08-19T06:07:28.685Z,75.00
2023-08-19T06:08:01.177Z,73.67
2023-08-19T06:08:34.703Z,73.00
2023-08-19T06:09:07.206Z,73.67
2023-08-19T06:09:39.702Z,75.67
2023-08-19T06:10:12.244Z,76.00
2023-08-19T06:10:47.813Z,75.33
2023-08-19T06:11:20.301Z,71.67
2023-08-19T06:11:53.923Z,65.00
2023-08-19T06:12:26.414Z,57.33
2023-08-19T06:12:58.976Z,53.33
2023-08-19T06:13:31.626Z,51.00
2023-08-19T06:14:04.296Z,49.67
2023-08-19T06:14:36.817Z,47.67
2023-08-19T06:15:09.669Z,44.00
2023-08-19T06:15:42.194Z,42.33
2023-08-19T06:16:14.781Z,43.33
2023-08-19T06:16:48.075Z,40.67
2023-08-19T06:17:20.571Z,37.33
2023-08-19T06:17:53.080Z,36.67
2023-08-19T06:18:26.218Z,35.00
2023-08-19T06:18:58.799Z,34.00
2023-08-19T06:19:31.294Z,30.33
2023-08-19T06:20:04.209Z,30.00
2023-08-19T06:20:36.754Z,28.00
2023-08-19T06:21:09.291Z,24.00
2023-08-19T06:21:41.872Z,19.33
2023-08-19T06:22:14.404Z,11.67
2023-08-19T06:22:46.938Z,6.00
2023-08-19T06:23:20.490Z,3.67
2023-08-19T06:23:52.980Z,2.33
2023-08-19T06:24:25.506Z,2.00
2023-08-19T06:24:58.045Z,1.33
2023-08-19T06:25:32.803Z,1.00
2023-08-19T06:26:06.402Z,1.00
2023-08-19T06:26:38.897Z,1.00
2023-08-19T06:27:11.398Z,1.00
2023-08-19T06:27:43.912Z,1.00
2023-08-19T06:28:17.092Z,1.00
2023-08-19T06:28:50.412Z,1.00
2023-08-19T06:29:22.882Z,1.00
2023-08-19T06:29:55.393Z,1.00
2023-08-19T06:30:27.864Z,1.00
2023-08-19T06:31:00.379Z,1.00
2023-08-19T06:31:33.221Z,1.00
2023-08-19T06:32:06.139Z,1.00
2023-08-19T06:32:38.874Z,1.00
2023-08-19T06:33:12.391Z,1.00
2023-08-19T06:33:45.490Z,1.00
2023-08-19T06:34:18.133Z,1.00
2023-08-19T06:34:50.790Z,1.00
2023-08-19T06:35:23.449Z,1.00
2023-08-19T06:35:58.811Z,1.00
2023-08-19T06:36:34.744Z,1.00
2023-08-19T06:37:12.093Z,1.00
2023-08-19T06:37:49.808Z,1.00
2023-08-19T06:38:27.533Z,1.00
2023-08-19T06:39:07.845Z,1.00
2023-08-19T06:39:46.736Z,1.00
2023-08-19T06:40:22.027Z,1.00
2023-08-19T06:41:07.909Z,1.00
2023-08-19T06:41:42.556Z,1.00
2023-08-19T06:42:17.963Z,1.00
2023-08-19T06:42:51.001Z,1.00
2023-08-19T06:43:27.802Z,1.00
2023-08-19T06:44:02.688Z,1.00
2023-08-19T06:44:38.373Z,1.00
2023-08-19T06:45:11.298Z,1.00
2023-08-19T06:45:44.378Z,1.00
2023-08-19T06:46:17.452Z,1.00
2023-08-19T06:46:51.296Z,1.00
2023-08-19T06:47:25.153Z,1.00
2023-08-19T06:47:59.280Z,1.00
2023-08-19T06:48:33.349Z,1.00
2023-08-19T06:49:06.148Z,1.00
2023-08-19T06:49:38.936Z,1.00
2023-08-19T06:50:12.492Z,1.00
2023-08-19T06:50:45.288Z,1.00
2023-08-19T06:51:18.008Z,1.00
2023-08-19T06:51:50.790Z,1.00
2023-08-19T06:52:24.019Z,1.33
2023-08-19T06:52:57.401Z,2.00
2023-08-19T06:53:30.720Z,2.00
2023-08-19T06:54:03.476Z,2.00
2023-08-19T06:54:36.268Z,3.67
2023-08-19T06:55:09.497Z,18.00
2023-08-19T06:56:06.572Z,37.00
2023-08-19T06:56:50.761Z,34.00
2023-08-19T06:57:30.397Z,32.00
2023-08-19T06:58:07.441Z,30.00
2023-08-19T06:58:44.959Z,27.67
2023-08-19T06:59:28.132Z,28.33
2023-08-19T07:00:13.380Z,33.00
2023-08-19T07:00:50.559Z,34.00
2023-08-19T07:01:31.326Z,31.33
2023-08-19T07:02:05.572Z,29.33